Time;durP1;ratioP1;P1;durP2;ratioP2;P2;SDS_P1;SDS_P2;PMS_P1;PMS_P2;Temp;Humidity;BMP_temperature;BMP_pressure;BME280_temperature;BME280_humidity;BME280_pressure;Samples;Min_cycle;Max_cycle;Signal;HPM_P1;HPM_P2
2022/07/29 00:01:52;;;;;;;8.80;8.07;;;20.40;99.90;;;;;;5008656;28;20187;-70
2022/07/29 00:04:18;;;;;;;8.07;7.37;;;20.40;99.90;;;;;;5010337;28;20178;-70
2022/07/29 00:06:44;;;;;;;8.40;7.78;;;20.40;99.90;;;;;;5005139;28;20464;-70
2022/07/29 00:09:09;;;;;;;8.50;7.80;;;20.40;99.90;;;;;;5010383;28;20187;-70
2022/07/29 00:11:35;;;;;;;8.93;8.17;;;20.40;99.90;;;;;;5010028;28;20733;-70
2022/07/29 00:14:01;;;;;;;8.13;7.53;;;20.40;99.90;;;;;;4992072;28;20761;-70
2022/07/29 00:16:26;;;;;;;8.60;8.00;;;20.40;99.90;;;;;;5009539;28;20190;-70
2022/07/29 00:18:52;;;;;;;8.27;7.67;;;20.30;99.90;;;;;;4991363;28;20182;-70
2022/07/29 00:21:18;;;;;;;9.07;8.17;;;20.30;99.90;;;;;;5008052;28;20321;-70
2022/07/29 00:23:43;;;;;;;8.03;7.43;;;20.40;99.90;;;;;;5003438;28;20180;-70
2022/07/29 00:26:09;;;;;;;7.30;6.73;;;20.40;99.90;;;;;;5009729;28;20735;-70
2022/07/29 00:28:35;;;;;;;9.00;8.20;;;20.50;99.90;;;;;;5010429;28;20207;-70
2022/07/29 00:31:00;;;;;;;8.60;7.90;;;20.50;99.90;;;;;;5012313;28;20625;-70
2022/07/29 00:33:26;;;;;;;7.90;7.30;;;20.40;99.90;;;;;;4995361;28;20188;-70
2022/07/29 00:35:52;;;;;;;9.30;8.60;;;20.40;99.90;;;;;;5005195;28;20191;-70
2022/07/29 00:38:19;;;;;;;8.70;8.00;;;20.30;99.90;;;;;;5008997;28;20265;-70
2022/07/29 00:40:45;;;;;;;8.35;7.75;;;20.20;99.90;;;;;;5003048;28;20194;-70
2022/07/29 00:43:13;;;;;;;8.52;7.93;;;20.20;99.90;;;;;;4992515;28;20186;-70
2022/07/29 00:45:39;;;;;;;8.07;7.47;;;20.20;99.90;;;;;;5004748;28;20191;-70
2022/07/29 00:48:06;;;;;;;8.60;7.70;;;20.20;99.90;;;;;;5013440;28;20214;-70
2022/07/29 00:50:32;;;;;;;8.13;7.45;;;20.20;99.90;;;;;;4994490;28;20237;-70
2022/07/29 00:52:58;;;;;;;8.48;7.88;;;20.20;99.90;;;;;;5013611;28;20178;-70
2022/07/29 00:55:24;;;;;;;8.48;7.78;;;20.30;99.90;;;;;;4995937;28;20171;-70
2022/07/29 00:57:50;;;;;;;7.97;7.37;;;20.30;99.90;;;;;;5012441;28;20809;-71
2022/07/29 01:00:25;;;;;;;7.33;6.80;;;20.40;99.90;;;;;;5004427;28;20190;-70
2022/07/29 01:02:51;;;;;;;8.07;7.35;;;20.40;99.90;;;;;;5013074;28;20436;-70
2022/07/29 01:05:19;;;;;;;8.33;7.63;;;20.40;99.90;;;;;;5010879;28;20572;-70
2022/07/29 01:07:46;;;;;;;8.10;7.43;;;20.50;99.90;;;;;;5010593;28;20453;-70
2022/07/29 01:10:13;;;;;;;6.90;6.40;;;20.50;99.90;;;;;;5013209;28;20775;-70
2022/07/29 01:12:39;;;;;;;8.02;7.43;;;20.50;99.90;;;;;;5012758;28;20202;-70
2022/07/29 01:15:07;;;;;;;7.70;7.10;;;20.40;99.90;;;;;;5010278;28;20202;-70
2022/07/29 01:17:42;;;;;;;8.25;7.55;;;20.30;99.90;;;;;;5012117;28;20202;-70
2022/07/29 01:20:25;;;;;;;7.40;6.90;;;20.40;99.90;;;;;;5009252;28;20186;-70
2022/07/29 01:23:13;;;;;;;8.13;7.43;;;20.30;99.90;;;;;;5011711;28;20244;-70
2022/07/29 01:26:09;;;;;;;8.35;7.65;;;20.20;99.90;;;;;;5009803;28;20175;-70
2022/07/29 01:28:56;;;;;;;7.30;6.70;;;20.20;99.90;;;;;;5009502;28;20234;-70
2022/07/29 01:31:47;;;;;;;7.70;7.10;;;20.10;99.90;;;;;;5003963;28;20218;-70
2022/07/29 01:34:24;;;;;;;7.90;7.30;;;20.10;99.90;;;;;;5012003;28;20204;-70
2022/07/29 01:37:25;;;;;;;8.27;7.50;;;20.00;99.90;;;;;;4988433;28;20206;-70
2022/07/29 01:39:54;;;;;;;8.25;7.60;;;20.00;99.90;;;;;;4991324;28;20721;-70
2022/07/29 01:42:28;;;;;;;7.40;6.80;;;20.00;99.90;;;;;;5011739;28;20219;-70
2022/07/29 01:45:00;;;;;;;8.65;7.85;;;20.00;99.90;;;;;;5010112;28;20773;-70
2022/07/29 01:47:36;;;;;;;7.63;6.90;;;19.90;99.90;;;;;;5011938;28;20218;-70
2022/07/29 01:50:08;;;;;;;7.43;6.93;;;19.80;99.90;;;;;;4998403;28;20178;-70
2022/07/29 01:52:43;;;;;;;8.65;7.85;;;19.80;99.90;;;;;;4991622;28;20218;-70
2022/07/29 01:55:16;;;;;;;8.27;7.60;;;19.70;99.90;;;;;;5006098;28;20189;-70
2022/07/29 01:57:46;;;;;;;7.55;6.95;;;19.60;99.90;;;;;;5010405;28;20210;-70
2022/07/29 02:00:13;;;;;;;7.75;7.15;;;19.70;99.90;;;;;;5005964;28;20186;-70
2022/07/29 02:02:43;;;;;;;7.45;6.85;;;19.70;99.90;;;;;;5011976;28;20187;-70
2022/07/29 02:05:13;;;;;;;6.70;6.10;;;19.70;99.90;;;;;;4993364;28;20218;-70
2022/07/29 02:07:41;;;;;;;6.50;5.95;;;19.80;99.90;;;;;;5008982;28;20257;-70
2022/07/29 02:10:10;;;;;;;6.10;5.70;;;19.60;99.90;;;;;;5011957;28;20329;-68
2022/07/29 02:12:37;;;;;;;7.10;6.60;;;19.80;99.90;;;;;;5011657;28;20695;-70
2022/07/29 02:15:05;;;;;;;7.90;6.38;;;19.80;99.90;;;;;;4991307;28;20716;-70
2022/07/29 02:17:45;;;;;;;6.93;6.32;;;19.80;99.90;;;;;;5007253;28;20203;-70
2022/07/29 02:20:12;;;;;;;6.55;5.93;;;19.80;99.90;;;;;;5008986;28;20182;-70
2022/07/29 02:22:40;;;;;;;7.45;6.70;;;19.80;99.90;;;;;;5008543;28;20556;-70
2022/07/29 02:25:08;;;;;;;6.82;6.32;;;19.80;99.90;;;;;;5011791;28;20187;-71
2022/07/29 02:27:35;;;;;;;6.47;6.00;;;19.80;99.90;;;;;;4993616;28;20230;-70
2022/07/29 02:30:02;;;;;;;6.03;5.63;;;19.70;99.90;;;;;;4993483;28;20198;-70
2022/07/29 02:32:31;;;;;;;6.05;5.63;;;19.70;99.90;;;;;;5011589;28;20674;-70
2022/07/29 02:34:58;;;;;;;7.22;6.63;;;19.70;99.90;;;;;;5011075;28;20191;-70
2022/07/29 02:37:25;;;;;;;6.82;6.30;;;19.70;99.90;;;;;;4990870;28;20300;-70
2022/07/29 02:39:54;;;;;;;7.53;7.00;;;19.70;99.90;;;;;;5011504;28;20182;-70
2022/07/29 02:42:22;;;;;;;6.57;6.07;;;19.60;99.90;;;;;;5010515;28;20229;-70
2022/07/29 02:44:48;;;;;;;6.75;6.30;;;19.60;99.90;;;;;;5008353;28;20190;-70
2022/07/29 02:47:23;;;;;;;6.33;5.83;;;19.50;99.90;;;;;;5010935;28;20265;-70
2022/07/29 02:50:02;;;;;;;7.13;6.53;;;19.50;99.90;;;;;;5010917;28;20459;-70
2022/07/29 02:52:44;;;;;;;6.43;5.93;;;19.50;99.90;;;;;;5007207;28;20210;-70
2022/07/29 02:55:12;;;;;;;6.05;5.55;;;19.10;99.90;;;;;;5003418;28;20600;-71
2022/07/29 02:58:03;;;;;;;6.80;6.30;;;19.40;99.90;;;;;;5007931;28;20195;-70
2022/07/29 03:00:31;;;;;;;5.70;5.28;;;19.40;99.90;;;;;;4998162;28;20269;-70
2022/07/29 03:03:00;;;;;;;5.90;5.40;;;19.40;99.90;;;;;;5011047;28;20211;-70
2022/07/29 03:05:27;;;;;;;6.05;5.65;;;19.40;99.90;;;;;;5009807;28;20691;-70
2022/07/29 03:07:58;;;;;;;6.88;6.28;;;19.40;99.90;;;;;;5010590;28;20209;-70
2022/07/29 03:10:26;;;;;;;5.93;5.53;;;19.40;99.90;;;;;;4993523;28;20214;-70
2022/07/29 03:12:52;;;;;;;6.65;6.07;;;19.60;99.90;;;;;;5007068;28;20648;-70
2022/07/29 03:15:18;;;;;;;5.75;5.35;;;19.60;99.90;;;;;;5007144;28;20182;-70
2022/07/29 03:17:45;;;;;;;5.57;5.18;;;19.70;99.90;;;;;;5010128;28;20203;-70
2022/07/29 03:20:11;;;;;;;5.75;5.25;;;19.70;99.90;;;;;;4991264;28;20187;-70
2022/07/29 03:22:43;;;;;;;5.78;5.28;;;19.70;99.90;;;;;;4989765;28;20182;-70
2022/07/29 03:25:10;;;;;;;6.30;5.85;;;19.70;99.90;;;;;;5010710;28;20191;-70
2022/07/29 03:27:36;;;;;;;6.57;5.60;;;19.50;99.90;;;;;;5010110;28;20207;-70
2022/07/29 03:30:02;;;;;;;6.73;6.23;;;19.40;99.90;;;;;;5010266;28;20728;-69
2022/07/29 03:32:28;;;;;;;6.38;5.97;;;19.40;99.90;;;;;;5010293;28;20222;-70
2022/07/29 03:34:54;;;;;;;6.70;6.10;;;19.40;99.90;;;;;;4993007;28;20183;-70
2022/07/29 03:37:19;;;;;;;5.73;5.33;;;19.40;99.90;;;;;;5006421;28;20253;-68
2022/07/29 03:39:46;;;;;;;6.57;6.00;;;19.40;99.90;;;;;;5010001;28;20191;-70
2022/07/29 03:42:15;;;;;;;6.38;5.72;;;19.40;99.90;;;;;;4992296;28;20194;-70
2022/07/29 03:44:45;;;;;;;6.60;6.00;;;19.50;99.90;;;;;;4992301;28;20274;-70
2022/07/29 03:47:14;;;;;;;6.38;5.88;;;19.50;99.90;;;;;;5009791;28;20215;-70
2022/07/29 03:49:41;;;;;;;6.95;5.97;;;19.50;99.90;;;;;;5007560;28;20190;-70
2022/07/29 03:52:07;;;;;;;6.30;5.80;;;19.50;99.90;;;;;;4991986;28;20742;-70
2022/07/29 03:54:34;;;;;;;6.37;5.87;;;19.60;99.90;;;;;;5010739;28;20270;-70
2022/07/29 03:57:01;;;;;;;6.20;5.80;;;19.50;99.90;;;;;;4997543;28;20457;-70
2022/07/29 03:59:29;;;;;;;6.07;5.63;;;19.40;99.90;;;;;;5004014;28;20187;-70
2022/07/29 04:01:56;;;;;;;6.13;5.68;;;19.10;99.90;;;;;;5009482;28;20257;-70
2022/07/29 04:04:22;;;;;;;6.45;5.95;;;19.30;99.90;;;;;;4992643;28;20190;-70
2022/07/29 04:06:48;;;;;;;7.43;6.50;;;19.30;99.90;;;;;;5008602;28;20344;-70
2022/07/29 04:09:13;;;;;;;6.13;5.73;;;19.30;99.90;;;;;;5010235;28;20198;-68
2022/07/29 04:11:40;;;;;;;7.07;6.57;;;19.20;99.90;;;;;;4992310;28;20281;-68
2022/07/29 04:14:06;;;;;;;5.55;5.25;;;19.10;99.90;;;;;;5009507;28;20206;-70
2022/07/29 04:16:32;;;;;;;7.28;6.05;;;19.20;99.90;;;;;;5009645;28;20183;-70
2022/07/29 04:18:58;;;;;;;6.80;6.10;;;19.20;99.90;;;;;;5010520;28;20190;-70
2022/07/29 04:21:24;;;;;;;6.10;5.70;;;19.10;99.90;;;;;;5010478;28;20445;-70
2022/07/29 04:23:50;;;;;;;7.20;6.60;;;19.20;99.90;;;;;;5013906;28;20195;-70
2022/07/29 04:26:19;;;;;;;6.43;5.93;;;19.10;99.90;;;;;;5013574;28;20446;-71
2022/07/29 04:28:45;;;;;;;5.75;5.35;;;19.30;99.90;;;;;;5012630;28;20793;-72
2022/07/29 04:31:12;;;;;;;5.80;5.40;;;19.30;99.90;;;;;;4995760;28;20213;-70
2022/07/29 04:33:38;;;;;;;5.30;4.90;;;19.30;99.90;;;;;;5007695;28;21021;-68
2022/07/29 04:36:04;;;;;;;7.07;6.45;;;19.20;99.90;;;;;;5009553;28;20235;-70
2022/07/29 04:38:30;;;;;;;6.22;5.63;;;19.20;99.90;;;;;;4995191;28;20206;-70
2022/07/29 04:40:56;;;;;;;5.67;5.27;;;19.30;99.90;;;;;;5012963;28;20198;-70
2022/07/29 04:43:21;;;;;;;6.33;5.70;;;19.30;99.90;;;;;;5013311;28;20186;-68
2022/07/29 04:45:47;;;;;;;7.30;6.80;;;19.30;99.90;;;;;;4999366;28;20199;-70
2022/07/29 04:48:13;;;;;;;6.53;5.73;;;19.40;99.90;;;;;;4994963;28;20826;-70
2022/07/29 04:50:39;;;;;;;6.80;6.20;;;19.30;99.90;;;;;;5008853;28;20206;-70
2022/07/29 04:53:05;;;;;;;6.50;6.00;;;19.40;99.90;;;;;;5013065;28;20186;-70
2022/07/29 04:55:32;;;;;;;6.50;6.00;;;19.40;99.90;;;;;;5013140;28;20262;-70
2022/07/29 04:57:58;;;;;;;6.07;5.47;;;19.60;99.90;;;;;;5011794;28;20249;-71
2022/07/29 05:00:24;;;;;;;6.30;5.80;;;19.60;99.90;;;;;;5007477;28;20179;-70
2022/07/29 05:02:49;;;;;;;5.87;5.37;;;19.70;99.90;;;;;;5006537;28;20191;-70
2022/07/29 05:05:15;;;;;;;4.80;4.50;;;19.70;99.90;;;;;;5010900;28;20260;-70
2022/07/29 05:07:41;;;;;;;4.70;4.40;;;20.10;99.90;;;;;;5013157;28;20456;-70
2022/07/29 05:10:07;;;;;;;5.23;4.73;;;19.80;99.90;;;;;;5014093;28;20264;-70
2022/07/29 05:12:33;;;;;;;4.82;4.53;;;20.00;99.90;;;;;;5015794;28;20198;-70
2022/07/29 05:14:58;;;;;;;4.80;4.40;;;20.30;99.90;;;;;;4998054;28;20183;-70
2022/07/29 05:17:24;;;;;;;4.60;4.17;;;20.40;99.90;;;;;;5008434;28;20702;-70
2022/07/29 05:19:51;;;;;;;4.83;4.20;;;20.60;99.90;;;;;;5013300;28;20186;-70
2022/07/29 05:22:18;;;;;;;4.45;4.15;;;20.70;99.90;;;;;;4994959;28;20656;-70
2022/07/29 05:24:44;;;;;;;3.88;3.60;;;20.90;99.90;;;;;;5017043;28;20186;-70
2022/07/29 05:27:09;;;;;;;3.73;3.53;;;21.10;99.90;;;;;;5011560;28;20278;-70
2022/07/29 05:29:35;;;;;;;3.90;3.60;;;21.20;99.90;;;;;;5007974;28;20211;-70
2022/07/29 05:32:01;;;;;;;3.57;3.37;;;21.10;99.90;;;;;;5011139;28;20230;-70
2022/07/29 05:34:26;;;;;;;3.83;3.53;;;21.20;99.90;;;;;;5012567;28;20576;-70
2022/07/29 05:36:53;;;;;;;3.57;3.37;;;21.30;99.90;;;;;;5009975;28;20462;-70
2022/07/29 05:39:18;;;;;;;3.15;2.95;;;21.40;99.90;;;;;;5002428;28;20179;-70
2022/07/29 05:41:44;;;;;;;3.10;2.90;;;21.60;99.90;;;;;;5010983;28;20186;-70
2022/07/29 05:44:09;;;;;;;2.90;2.70;;;21.70;99.90;;;;;;5008885;28;20862;-70
2022/07/29 05:46:35;;;;;;;3.43;3.23;;;21.90;99.90;;;;;;5001031;28;20293;-68
2022/07/29 05:49:02;;;;;;;3.97;3.63;;;22.00;99.90;;;;;;5008265;28;20187;-69
2022/07/29 05:51:28;;;;;;;3.23;3.03;;;22.10;99.90;;;;;;5007984;28;20501;-70
2022/07/29 05:53:53;;;;;;;3.83;3.63;;;22.10;99.90;;;;;;4994509;28;20465;-69
2022/07/29 05:56:19;;;;;;;3.50;3.10;;;22.20;99.90;;;;;;5011030;28;20440;-69
2022/07/29 05:58:45;;;;;;;3.80;3.37;;;22.20;99.90;;;;;;5002151;28;20656;-69
2022/07/29 06:01:11;;;;;;;3.50;3.20;;;22.30;99.90;;;;;;5000277;28;20256;-70
2022/07/29 06:03:37;;;;;;;3.70;3.40;;;22.30;99.90;;;;;;5011271;28;20436;-70
2022/07/29 06:06:04;;;;;;;4.03;3.73;;;22.50;99.90;;;;;;5004703;28;20184;-69
2022/07/29 06:08:29;;;;;;;3.67;3.47;;;22.70;99.90;;;;;;5006776;28;20810;-70
2022/07/29 06:10:55;;;;;;;4.10;3.80;;;22.80;99.90;;;;;;4993339;28;20462;-70
2022/07/29 06:13:21;;;;;;;3.70;3.40;;;22.80;99.90;;;;;;4993645;28;20183;-68
2022/07/29 06:15:46;;;;;;;4.67;4.30;;;23.00;99.90;;;;;;5004315;28;20187;-68
2022/07/29 06:18:13;;;;;;;5.50;3.80;;;23.00;99.90;;;;;;5011182;28;20207;-70
2022/07/29 06:20:38;;;;;;;4.10;3.80;;;23.10;99.90;;;;;;5006451;28;20262;-68
2022/07/29 06:23:04;;;;;;;4.20;3.90;;;23.20;99.90;;;;;;5010835;28;20520;-68
2022/07/29 06:25:30;;;;;;;4.20;3.97;;;23.30;99.90;;;;;;5010815;28;20671;-68
2022/07/29 06:27:57;;;;;;;6.70;3.90;;;23.20;99.90;;;;;;5010429;28;20198;-68
2022/07/29 06:30:22;;;;;;;4.07;3.77;;;23.40;99.90;;;;;;5003650;28;20449;-68
2022/07/29 06:32:49;;;;;;;5.33;3.70;;;23.60;99.90;;;;;;4993343;28;20462;-68
2022/07/29 06:35:14;;;;;;;4.03;3.73;;;23.70;99.90;;;;;;5009093;28;20520;-69
2022/07/29 06:37:40;;;;;;;4.60;4.20;;;23.80;99.90;;;;;;4989778;28;20454;-69
2022/07/29 06:42:50;;;;;;;4.30;4.00;;;24.20;99.50;;;;;;5009692;28;20209;-69
2022/07/29 06:45:16;;;;;;;4.67;4.27;;;24.30;99.60;;;;;;5009389;28;20957;-69
2022/07/29 06:47:42;;;;;;;4.33;4.00;;;24.50;99.20;;;;;;4992505;28;20953;-69
2022/07/29 06:50:11;;;;;;;4.57;4.17;;;24.70;98.80;;;;;;5002755;28;20675;-69
2022/07/29 06:52:40;;;;;;;4.80;3.80;;;25.00;98.20;;;;;;5007122;28;20893;-69
2022/07/29 06:55:07;;;;;;;4.73;4.33;;;25.00;97.50;;;;;;5010215;28;20434;-69
2022/07/29 06:57:33;;;;;;;4.60;4.30;;;25.00;97.50;;;;;;5009777;28;20458;-69
2022/07/29 06:59:59;;;;;;;4.77;4.37;;;25.00;97.50;;;;;;5004016;28;20504;-69
2022/07/29 07:02:25;;;;;;;4.57;4.27;;;25.10;97.60;;;;;;4996728;28;20476;-69
2022/07/29 07:04:51;;;;;;;4.30;4.00;;;25.30;97.40;;;;;;5007393;28;20193;-69
2022/07/29 07:07:16;;;;;;;4.30;4.00;;;25.40;97.10;;;;;;4991332;28;20914;-70
2022/07/29 07:09:42;;;;;;;4.90;4.50;;;25.70;96.70;;;;;;5010709;28;20197;-70
2022/07/29 07:12:08;;;;;;;4.63;4.33;;;26.00;96.20;;;;;;5009924;28;20268;-70
2022/07/29 07:14:34;;;;;;;4.57;4.17;;;26.60;94.90;;;;;;5007228;28;20278;-70
2022/07/29 07:17:00;;;;;;;4.30;4.00;;;27.70;92.90;;;;;;5000073;28;21374;-70
2022/07/29 07:19:29;;;;;;;4.70;4.40;;;28.90;91.30;;;;;;5008315;28;20210;-69
2022/07/29 07:21:54;;;;;;;4.30;4.00;;;30.70;84.80;;;;;;5002732;28;20473;-72
2022/07/29 07:24:20;;;;;;;4.70;4.40;;;31.00;79.30;;;;;;5009978;28;20430;-70
2022/07/29 07:26:46;;;;;;;4.07;3.77;;;30.90;78.10;;;;;;5007207;28;20304;-70
2022/07/29 07:29:11;;;;;;;4.27;3.97;;;32.00;75.20;;;;;;5005705;28;20205;-72
2022/07/29 07:31:37;;;;;;;4.50;4.20;;;31.80;73.40;;;;;;5007015;28;20202;-70
2022/07/29 07:34:04;;;;;;;4.20;3.90;;;31.50;73.60;;;;;;5009997;28;20535;-70
2022/07/29 07:36:29;;;;;;;6.27;3.90;;;31.60;73.60;;;;;;5002133;28;20551;-72
2022/07/29 07:38:55;;;;;;;5.30;4.80;;;33.00;70.80;;;;;;5009736;28;20857;-72
2022/07/29 07:41:21;;;;;;;5.50;4.27;;;34.00;66.50;;;;;;4994765;28;20185;-72
2022/07/29 07:43:47;;;;;;;4.30;4.00;;;33.70;66.00;;;;;;4991641;28;20195;-72
2022/07/29 07:46:12;;;;;;;4.53;4.20;;;33.60;66.90;;;;;;5009810;28;20436;-72
2022/07/29 07:48:38;;;;;;;4.80;4.50;;;35.00;63.50;;;;;;5009688;28;20224;-70
2022/07/29 07:51:04;;;;;;;4.70;4.40;;;34.40;62.10;;;;;;5005320;28;20221;-70
2022/07/29 07:53:30;;;;;;;5.57;4.33;;;36.70;58.70;;;;;;5010166;28;20187;-70
2022/07/29 07:55:55;;;;;;;4.10;3.80;;;37.40;55.90;;;;;;4993895;28;20219;-71
2022/07/29 07:58:21;;;;;;;5.50;4.13;;;36.80;54.60;;;;;;4996208;28;20865;-71
2022/07/29 08:00:47;;;;;;;6.03;5.53;;;37.60;54.10;;;;;;4994740;28;20276;-70
2022/07/29 08:03:13;;;;;;;5.10;4.73;;;36.50;54.30;;;;;;5013729;28;20278;-70
2022/07/29 08:05:40;;;;;;;4.83;4.40;;;35.30;56.20;;;;;;5005920;28;20450;-70
2022/07/29 08:08:06;;;;;;;4.47;4.13;;;36.40;54.60;;;;;;4995180;28;20453;-70
2022/07/29 08:13:16;;;;;;;4.30;4.00;;;38.30;50.70;;;;;;5007527;28;20206;-71
2022/07/29 08:15:42;;;;;;;5.53;4.80;;;38.50;49.20;;;;;;5008790;28;20930;-70
2022/07/29 08:18:08;;;;;;;4.70;4.40;;;38.60;48.10;;;;;;5012892;28;20593;-71
2022/07/29 08:20:35;;;;;;;4.47;4.17;;;39.20;47.40;;;;;;4993695;28;20423;-71
2022/07/29 08:23:02;;;;;;;4.90;4.37;;;39.90;45.90;;;;;;4994860;28;20195;-71
2022/07/29 08:25:27;;;;;;;4.80;4.30;;;39.20;46.40;;;;;;5003602;28;20787;-71
2022/07/29 08:27:53;;;;;;;5.63;5.07;;;38.60;47.60;;;;;;5011778;28;20442;-71
2022/07/29 08:30:19;;;;;;;4.80;4.33;;;38.50;46.00;;;;;;5007929;28;20222;-72
2022/07/29 08:32:44;;;;;;;4.80;4.40;;;38.50;45.80;;;;;;5012484;28;20241;-74
2022/07/29 08:35:10;;;;;;;5.23;4.73;;;39.30;44.50;;;;;;5011663;28;20186;-76
2022/07/29 08:37:36;;;;;;;4.67;4.37;;;40.50;43.40;;;;;;5009733;28;20281;-72
2022/07/29 08:40:02;;;;;;;4.63;4.33;;;40.10;41.90;;;;;;5013126;28;20668;-73
2022/07/29 08:42:27;;;;;;;4.67;4.30;;;40.30;41.60;;;;;;5012931;28;20218;-72
2022/07/29 08:44:54;;;;;;;5.73;5.03;;;39.70;40.80;;;;;;5011873;28;20482;-72
2022/07/29 08:47:20;;;;;;;5.50;5.10;;;37.90;41.70;;;;;;5011998;28;20214;-72
2022/07/29 08:49:48;;;;;;;5.33;5.00;;;37.30;44.90;;;;;;5013072;28;20437;-72
2022/07/29 08:52:14;;;;;;;5.57;4.80;;;36.80;47.20;;;;;;5011063;28;20222;-72
2022/07/29 08:54:43;;;;;;;5.10;4.60;;;38.10;46.30;;;;;;4995049;28;20440;-72
2022/07/29 08:57:12;;;;;;;5.00;4.67;;;38.50;45.10;;;;;;5011467;28;21137;-72
2022/07/29 08:59:40;;;;;;;5.10;4.60;;;36.90;46.60;;;;;;5012631;28;20433;-72
2022/07/29 09:02:18;;;;;;;5.53;5.13;;;37.00;45.60;;;;;;5012410;28;20429;-72
2022/07/29 09:04:44;;;;;;;5.57;5.20;;;38.00;43.60;;;;;;4998817;28;20620;-75
2022/07/29 09:07:15;;;;;;;5.80;5.37;;;37.90;42.60;;;;;;5011478;28;20497;-73
2022/07/29 09:09:42;;;;;;;5.20;4.60;;;39.70;41.60;;;;;;5011009;28;20433;-73
2022/07/29 09:12:08;;;;;;;5.60;5.23;;;40.30;41.40;;;;;;5012054;28;20462;-71
2022/07/29 09:14:34;;;;;;;5.33;4.83;;;37.90;41.80;;;;;;5008031;28;20442;-72
2022/07/29 09:17:00;;;;;;;5.40;4.90;;;37.50;44.70;;;;;;5011723;28;20511;-71
2022/07/29 09:19:28;;;;;;;6.33;4.60;;;37.90;42.90;;;;;;5011821;28;20249;-71
2022/07/29 09:21:57;;;;;;;5.33;5.03;;;38.30;42.80;;;;;;4993623;28;20477;-72
2022/07/29 09:24:33;;;;;;;5.40;5.00;;;39.30;41.20;;;;;;5006074;28;20449;-74
2022/07/29 09:26:58;;;;;;;5.80;5.30;;;39.30;40.70;;;;;;5006184;28;20472;-72
2022/07/29 09:29:25;;;;;;;5.40;4.97;;;39.60;40.00;;;;;;4991030;28;20449;-72
2022/07/29 09:31:52;;;;;;;5.37;4.97;;;39.50;40.40;;;;;;5011729;28;20777;-72
2022/07/29 09:34:28;;;;;;;5.43;5.10;;;40.00;39.60;;;;;;5011233;28;20465;-72
2022/07/29 09:36:54;;;;;;;5.33;4.90;;;40.10;39.50;;;;;;4996984;28;20456;-72
2022/07/29 09:39:45;;;;;;;5.87;5.47;;;39.70;39.80;;;;;;5011712;28;20681;-71
2022/07/29 09:42:12;;;;;;;5.20;4.80;;;40.30;39.10;;;;;;4994774;28;20429;-71
2022/07/29 09:44:49;;;;;;;5.37;4.97;;;40.40;38.30;;;;;;4991160;28;20477;-75
2022/07/29 09:47:17;;;;;;;5.93;5.50;;;40.90;38.10;;;;;;5000406;28;20456;-72
2022/07/29 09:50:00;;;;;;;6.37;5.00;;;40.70;37.40;;;;;;5011529;28;20434;-73
2022/07/29 09:52:28;;;;;;;8.00;6.10;;;40.40;37.90;;;;;;5011528;28;20982;-72
2022/07/29 09:55:06;;;;;;;5.87;5.47;;;40.90;38.00;;;;;;5011239;28;20437;-73
2022/07/29 09:57:31;;;;;;;5.63;5.13;;;40.10;37.50;;;;;;4993072;28;20442;-72
2022/07/29 09:59:58;;;;;;;6.13;5.63;;;39.20;38.30;;;;;;5006146;28;20501;-70
2022/07/29 10:02:28;;;;;;;5.50;5.00;;;37.90;40.20;;;;;;5006360;28;20660;-74
2022/07/29 10:04:53;;;;;;;6.07;5.67;;;37.40;42.30;;;;;;5008318;28;20507;-73
2022/07/29 10:07:19;;;;;;;6.20;5.70;;;37.60;42.60;;;;;;5009350;28;21165;-71
2022/07/29 10:09:56;;;;;;;5.87;5.47;;;38.20;41.80;;;;;;4993537;28;20603;-71
2022/07/29 10:12:23;;;;;;;6.80;6.30;;;37.90;41.20;;;;;;5011069;28;20203;-71
2022/07/29 10:14:50;;;;;;;7.30;6.17;;;36.10;42.70;;;;;;4988754;28;20437;-72
2022/07/29 10:17:16;;;;;;;6.87;6.40;;;35.30;45.60;;;;;;5010273;28;20453;-71
2022/07/29 10:19:42;;;;;;;6.03;5.53;;;34.40;45.90;;;;;;5010339;28;20429;-72
2022/07/29 10:22:09;;;;;;;7.00;6.47;;;34.20;46.30;;;;;;5005906;28;21060;-70
2022/07/29 10:24:37;;;;;;;6.47;5.97;;;33.30;47.10;;;;;;5009105;28;20435;-71
2022/07/29 10:27:05;;;;;;;6.30;5.70;;;32.60;49.10;;;;;;4991050;28;20455;-70
2022/07/29 10:29:33;;;;;;;6.60;5.90;;;31.80;50.70;;;;;;5008033;28;20458;-69
2022/07/29 10:32:25;;;;;;;6.90;6.30;;;30.90;52.30;;;;;;5009847;28;20465;-70
2022/07/29 10:35:12;;;;;;;7.27;6.67;;;30.50;53.80;;;;;;5009727;28;20436;-70
2022/07/29 10:38:15;;;;;;;7.17;6.67;;;29.80;56.00;;;;;;5010043;28;20454;-70
2022/07/29 10:43:56;;;;;;;7.40;6.90;;;29.00;61.20;;;;;;5009239;28;20845;-70
2022/07/29 10:46:22;;;;;;;9.63;8.73;;;28.70;67.80;;;;;;4990559;28;20568;-70
2022/07/29 10:49:25;;;;;;;8.90;7.97;;;28.20;73.40;;;;;;5005604;28;20472;-71
2022/07/29 10:51:58;;;;;;;11.70;8.67;;;27.40;78.30;;;;;;4971029;28;20211;-71
2022/07/29 10:54:35;;;;;;;11.10;8.60;;;26.90;90.10;;;;;;5004786;28;20441;-72
2022/07/29 10:57:25;;;;;;;10.23;9.23;;;26.60;91.50;;;;;;5009776;28;20546;-71
2022/07/29 11:00:11;;;;;;;11.87;10.67;;;26.30;92.70;;;;;;4992537;28;20437;-71
2022/07/29 11:02:39;;;;;;;8.20;7.40;;;25.60;99.20;;;;;;5007903;28;20519;-70
2022/07/29 11:05:19;;;;;;;12.60;7.90;;;24.40;99.70;;;;;;5009614;28;20464;-67
2022/07/29 11:08:09;;;;;;;9.20;8.57;;;23.30;99.90;;;;;;4990437;28;20457;-67
2022/07/29 11:10:35;;;;;;;10.50;9.50;;;22.20;99.90;;;;;;5008256;28;20425;-66
2022/07/29 11:13:00;;;;;;;12.10;10.40;;;21.70;99.90;;;;;;5009366;28;20456;-67
2022/07/29 11:15:26;;;;;;;14.10;12.70;;;21.20;99.90;;;;;;5003192;28;20576;-67
2022/07/29 11:17:57;;;;;;;15.33;11.30;;;20.90;99.90;;;;;;5009026;28;20309;-67
2022/07/29 11:20:31;;;;;;;12.95;11.93;;;20.60;99.90;;;;;;5007539;28;20245;-66
2022/07/29 11:22:58;;;;;;;12.90;11.90;;;20.50;99.90;;;;;;5009177;28;20185;-67
2022/07/29 11:25:24;;;;;;;12.85;11.65;;;20.40;99.90;;;;;;5009797;28;20241;-67
2022/07/29 11:27:51;;;;;;;14.63;13.43;;;20.30;99.90;;;;;;5009386;28;20214;-67
2022/07/29 11:30:17;;;;;;;14.20;12.88;;;20.20;99.90;;;;;;5006894;28;20202;-67
2022/07/29 11:32:44;;;;;;;13.30;12.20;;;20.20;99.90;;;;;;4991811;28;20852;-68
2022/07/29 11:35:23;;;;;;;13.30;12.20;;;20.10;99.90;;;;;;5008025;28;20618;-67
2022/07/29 11:38:24;;;;;;;14.82;13.23;;;20.10;99.90;;;;;;5007075;28;20243;-69
2022/07/29 11:41:24;;;;;;;14.75;13.35;;;20.10;99.90;;;;;;5008017;28;20187;-68
2022/07/29 11:43:57;;;;;;;16.80;15.27;;;20.20;99.90;;;;;;5006456;28;20180;-68
2022/07/29 11:46:42;;;;;;;17.40;15.80;;;20.30;99.90;;;;;;5008611;28;20215;-68
2022/07/29 11:49:09;;;;;;;16.75;15.35;;;20.40;99.90;;;;;;5006982;28;20193;-67
2022/07/29 11:51:37;;;;;;;14.85;13.65;;;20.50;99.90;;;;;;4987591;28;20210;-67
2022/07/29 11:54:03;;;;;;;17.08;15.70;;;20.50;99.90;;;;;;4991069;28;20186;-67
2022/07/29 11:56:32;;;;;;;18.05;16.40;;;20.60;99.90;;;;;;5008872;28;20175;-67
2022/07/29 11:59:09;;;;;;;12.60;11.60;;;20.60;99.90;;;;;;5008594;28;20209;-67
2022/07/29 12:01:35;;;;;;;9.75;9.05;;;20.60;99.90;;;;;;4993138;28;20186;-68
2022/07/29 12:04:04;;;;;;;8.80;8.20;;;20.50;99.90;;;;;;5008336;28;20249;-68
2022/07/29 12:06:30;;;;;;;9.70;8.68;;;20.90;99.90;;;;;;4989907;28;20194;-67
2022/07/29 12:08:56;;;;;;;11.80;10.90;;;20.00;99.90;;;;;;5009090;28;20186;-67
2022/07/29 12:11:22;;;;;;;9.52;8.82;;;20.30;99.90;;;;;;4990490;28;20501;-67
2022/07/29 12:13:49;;;;;;;9.40;8.60;;;20.30;99.90;;;;;;5005359;28;20225;-67
2022/07/29 12:16:15;;;;;;;8.13;7.43;;;20.40;99.90;;;;;;5003381;28;20179;-67
2022/07/29 12:18:41;;;;;;;6.13;5.53;;;20.30;99.90;;;;;;5007732;28;20174;-68
2022/07/29 12:21:08;;;;;;;7.63;6.83;;;20.30;99.90;;;;;;5004757;28;20205;-68
2022/07/29 12:23:33;;;;;;;5.57;5.18;;;20.40;99.90;;;;;;5008855;28;20410;-69
2022/07/29 12:25:59;;;;;;;7.07;6.47;;;20.50;99.90;;;;;;5009003;28;20237;-69
2022/07/29 12:28:25;;;;;;;6.88;6.03;;;20.60;99.90;;;;;;5009034;28;20280;-67
2022/07/29 12:30:51;;;;;;;7.13;6.53;;;20.80;99.90;;;;;;5007047;28;20191;-67
2022/07/29 12:33:23;;;;;;;6.90;6.40;;;20.80;99.90;;;;;;5008929;28;20500;-68
2022/07/29 12:35:51;;;;;;;7.57;6.97;;;21.30;99.90;;;;;;4988328;28;20554;-68
2022/07/29 12:38:18;;;;;;;8.68;7.93;;;21.40;99.90;;;;;;5008605;28;20206;-69
2022/07/29 12:40:46;;;;;;;8.73;7.63;;;21.60;99.90;;;;;;4990800;28;20186;-68
2022/07/29 12:43:13;;;;;;;7.57;6.97;;;21.60;99.90;;;;;;5012699;28;20270;-68
2022/07/29 12:45:41;;;;;;;8.30;7.30;;;21.70;99.90;;;;;;5008572;28;20285;-69
2022/07/29 12:48:10;;;;;;;8.35;7.75;;;21.90;99.90;;;;;;5010369;28;20294;-70
2022/07/29 12:50:51;;;;;;;8.13;7.53;;;21.90;99.90;;;;;;4992577;28;20199;-68
2022/07/29 12:53:17;;;;;;;8.63;7.93;;;21.80;99.90;;;;;;5012739;28;20190;-68
2022/07/29 12:55:48;;;;;;;8.20;7.60;;;21.80;99.90;;;;;;5012314;28;20186;-69
2022/07/29 12:58:26;;;;;;;8.32;7.50;;;21.70;99.90;;;;;;5010935;28;20301;-74
2022/07/29 13:01:00;;;;;;;9.67;8.77;;;21.60;99.90;;;;;;4993051;28;20537;-71
2022/07/29 13:03:25;;;;;;;9.05;8.38;;;21.60;99.90;;;;;;5004586;28;20461;-71